Baskc, Croatia
Current Conditions -  °F | °C
As of 11:30 AM on Saturday 20 Dec 2014 (Local Time) from LDRI Reporting Station
Scattered Clouds Scattered Clouds  
Wind Chill: 55°   Ceiling: Unl
Heat Index: 55°   Visibility: 6mi
Dew Point: 45°   Wind: 2mph
Humidity: 67%   Direction: NA
Pressure: 30.21"   Gusts: NA
Location:  44.98°N, 14.75°E
Report Text: LDRI 201030Z VRB02KT 9999 SCT033 13/07 Q1023
Loading
Personal Weather Stations






























Interactive Weather Map New forecast layout! Learn more

10-Day Weather Forecast

Advertisements
Track Severe Weather on mobile